sensor_id;sensor_type;location;lat;lon;timestamp;pressure;altitude;pressure_sealevel;temperature;humidity
76940;BME280;65885;55.848;35.916;2023-04-15T00:01:53;100370.38;;;2.79;27.03
76940;BME280;65885;55.848;35.916;2023-04-15T00:04:25;100371.19;;;2.66;27.57
76940;BME280;65885;55.848;35.916;2023-04-15T00:07:05;100378.88;;;2.54;27.53
76940;BME280;65885;55.848;35.916;2023-04-15T00:09:42;100376.25;;;2.46;27.79
76940;BME280;65885;55.848;35.916;2023-04-15T00:12:16;100378.84;;;2.47;27.46
76940;BME280;65885;55.848;35.916;2023-04-15T00:14:53;100384.06;;;2.52;26.98
76940;BME280;65885;55.848;35.916;2023-04-15T00:17:34;100384.09;;;2.58;27.85
76940;BME280;65885;55.848;35.916;2023-04-15T00:20:09;100391.00;;;2.64;26.75
76940;BME280;65885;55.848;35.916;2023-04-15T00:22:42;100387.59;;;2.68;27.87
76940;BME280;65885;55.848;35.916;2023-04-15T00:25:14;100399.69;;;2.72;26.69
76940;BME280;65885;55.848;35.916;2023-04-15T00:27:44;100409.22;;;2.74;26.84
76940;BME280;65885;55.848;35.916;2023-04-15T00:30:12;100404.03;;;2.74;27.33
76940;BME280;65885;55.848;35.916;2023-04-15T00:32:48;100404.03;;;2.76;27.02
76940;BME280;65885;55.848;35.916;2023-04-15T00:35:25;100411.81;;;2.76;27.65
76940;BME280;65885;55.848;35.916;2023-04-15T00:41:00;100423.81;;;2.63;26.93
76940;BME280;65885;55.848;35.916;2023-04-15T00:43:36;100422.84;;;2.49;27.94
76940;BME280;65885;55.848;35.916;2023-04-15T00:46:06;100425.31;;;2.32;28.28
76940;BME280;65885;55.848;35.916;2023-04-15T00:48:35;100424.31;;;2.16;29.18
76940;BME280;65885;55.848;35.916;2023-04-15T00:51:04;100431.09;;;2.02;28.52
76940;BME280;65885;55.848;35.916;2023-04-15T00:53:34;100425.78;;;1.88;29.08
76940;BME280;65885;55.848;35.916;2023-04-15T00:56:03;100432.59;;;1.77;29.34
76940;BME280;65885;55.848;35.916;2023-04-15T00:58:41;100435.09;;;1.66;29.48
76940;BME280;65885;55.848;35.916;2023-04-15T01:01:09;100439.28;;;1.58;28.68
76940;BME280;65885;55.848;35.916;2023-04-15T01:03:36;100440.91;;;1.50;29.61
76940;BME280;65885;55.848;35.916;2023-04-15T01:06:05;100446.84;;;1.43;29.18
76940;BME280;65885;55.848;35.916;2023-04-15T01:08:35;100452.88;;;1.42;29.89
76940;BME280;65885;55.848;35.916;2023-04-15T01:11:14;100448.63;;;1.47;29.72
76940;BME280;65885;55.848;35.916;2023-04-15T01:13:58;100445.31;;;1.57;29.77
76940;BME280;65885;55.848;35.916;2023-04-15T01:16:28;100445.44;;;1.66;28.96
76940;BME280;65885;55.848;35.916;2023-04-15T01:19:05;100445.53;;;1.79;28.86
76940;BME280;65885;55.848;35.916;2023-04-15T01:21:52;100449.06;;;1.87;29.17
76940;BME280;65885;55.848;35.916;2023-04-15T01:24:23;100449.13;;;1.96;29.92
76940;BME280;65885;55.848;35.916;2023-04-15T01:26:55;100454.38;;;2.01;29.51
76940;BME280;65885;55.848;35.916;2023-04-15T01:29:26;100452.72;;;2.06;29.10
76940;BME280;65885;55.848;35.916;2023-04-15T01:31:54;100456.16;;;2.09;28.75
76940;BME280;65885;55.848;35.916;2023-04-15T01:34:44;100464.00;;;2.14;29.71
76940;BME280;65885;55.848;35.916;2023-04-15T01:37:32;100457.94;;;2.13;29.42
76940;BME280;65885;55.848;35.916;2023-04-15T01:40:01;100466.50;;;2.06;30.06
76940;BME280;65885;55.848;35.916;2023-04-15T01:42:31;100470.69;;;1.93;29.55
76940;BME280;65885;55.848;35.916;2023-04-15T01:45:01;100464.50;;;1.81;30.32
76940;BME280;65885;55.848;35.916;2023-04-15T01:47:31;100460.09;;;1.69;30.05
76940;BME280;65885;55.848;35.916;2023-04-15T01:50:00;100471.16;;;1.57;30.02
76940;BME280;65885;55.848;35.916;2023-04-15T01:52:32;100471.88;;;1.44;30.26
76940;BME280;65885;55.848;35.916;2023-04-15T01:55:01;100476.91;;;1.35;30.37
76940;BME280;65885;55.848;35.916;2023-04-15T01:57:33;100474.19;;;1.24;30.33
76940;BME280;65885;55.848;35.916;2023-04-15T02:00:03;100480.13;;;1.16;30.14
76940;BME280;65885;55.848;35.916;2023-04-15T02:02:33;100477.44;;;1.09;29.95
76940;BME280;65885;55.848;35.916;2023-04-15T02:05:02;100480.91;;;1.10;30.94
76940;BME280;65885;55.848;35.916;2023-04-15T02:07:31;100486.16;;;1.16;30.64
76940;BME280;65885;55.848;35.916;2023-04-15T02:10:00;100492.31;;;1.26;30.69
76940;BME280;65885;55.848;35.916;2023-04-15T02:12:30;100494.16;;;1.36;30.27
76940;BME280;65885;55.848;35.916;2023-04-15T02:15:00;100502.06;;;1.47;29.99
76940;BME280;65885;55.848;35.916;2023-04-15T02:17:29;100494.41;;;1.56;30.75
76940;BME280;65885;55.848;35.916;2023-04-15T02:20:02;100497.06;;;1.63;30.37
76940;BME280;65885;55.848;35.916;2023-04-15T02:22:32;100504.06;;;1.71;30.27
76940;BME280;65885;55.848;35.916;2023-04-15T02:25:03;100506.72;;;1.77;30.43
76940;BME280;65885;55.848;35.916;2023-04-15T02:27:35;100505.94;;;1.82;30.03
76940;BME280;65885;55.848;35.916;2023-04-15T02:30:08;100503.38;;;1.88;30.11
76940;BME280;65885;55.848;35.916;2023-04-15T02:32:37;100506.03;;;1.93;30.21
76940;BME280;65885;55.848;35.916;2023-04-15T02:35:08;100506.03;;;1.93;30.07
76940;BME280;65885;55.848;35.916;2023-04-15T02:37:37;100511.13;;;1.85;29.88
76940;BME280;65885;55.848;35.916;2023-04-15T02:40:10;100511.00;;;1.75;30.79
76940;BME280;65885;55.848;35.916;2023-04-15T02:42:39;100518.63;;;1.64;30.48
76940;BME280;65885;55.848;35.916;2023-04-15T02:45:10;100512.47;;;1.53;30.76
76940;BME280;65885;55.848;35.916;2023-04-15T02:47:41;100524.38;;;1.43;30.57
76940;BME280;65885;55.848;35.916;2023-04-15T02:50:12;100529.44;;;1.32;31.06
76940;BME280;65885;55.848;35.916;2023-04-15T02:52:41;100531.91;;;1.26;30.54
76940;BME280;65885;55.848;35.916;2023-04-15T02:55:10;100530.94;;;1.18;30.40
76940;BME280;65885;55.848;35.916;2023-04-15T02:57:40;100535.19;;;1.13;31.57
76940;BME280;65885;55.848;35.916;2023-04-15T03:00:13;100533.41;;;1.09;31.95
76940;BME280;65885;55.848;35.916;2023-04-15T03:02:46;100542.00;;;1.06;31.17
76940;BME280;65885;55.848;35.916;2023-04-15T03:05:18;100538.59;;;1.10;30.79
76940;BME280;65885;55.848;35.916;2023-04-15T03:07:46;100539.63;;;1.22;31.48
76940;BME280;65885;55.848;35.916;2023-04-15T03:10:16;100544.16;;;1.38;31.57
76940;BME280;65885;55.848;35.916;2023-04-15T03:12:45;100545.22;;;1.54;31.03
76940;BME280;65885;55.848;35.916;2023-04-15T03:15:16;100546.28;;;1.70;30.82
76940;BME280;65885;55.848;35.916;2023-04-15T03:17:45;100547.31;;;1.84;30.81
76940;BME280;65885;55.848;35.916;2023-04-15T03:20:15;100545.75;;;1.97;30.54
76940;BME280;65885;55.848;35.916;2023-04-15T03:22:44;100546.72;;;2.08;29.73
76940;BME280;65885;55.848;35.916;2023-04-15T03:25:13;100545.09;;;2.19;30.41
76940;BME280;65885;55.848;35.916;2023-04-15T03:27:43;100551.25;;;2.30;30.11
76940;BME280;65885;55.848;35.916;2023-04-15T03:30:12;100548.75;;;2.38;29.99
76940;BME280;65885;55.848;35.916;2023-04-15T03:32:43;100552.28;;;2.49;29.54
76940;BME280;65885;55.848;35.916;2023-04-15T03:35:12;100552.41;;;2.58;29.39
76940;BME280;65885;55.848;35.916;2023-04-15T03:37:42;100548.94;;;2.59;29.70
76940;BME280;65885;55.848;35.916;2023-04-15T03:40:12;100554.09;;;2.56;30.06
76940;BME280;65885;55.848;35.916;2023-04-15T03:42:43;100558.38;;;2.49;30.02
76940;BME280;65885;55.848;35.916;2023-04-15T03:45:12;100559.16;;;2.44;30.73
76940;BME280;65885;55.848;35.916;2023-04-15T03:47:44;100552.19;;;2.37;30.19
76940;BME280;65885;55.848;35.916;2023-04-15T03:50:13;100559.03;;;2.32;30.52
76940;BME280;65885;55.848;35.916;2023-04-15T03:52:43;100558.09;;;2.27;30.81
76940;BME280;65885;55.848;35.916;2023-04-15T03:55:12;100561.53;;;2.22;30.85
76940;BME280;65885;55.848;35.916;2023-04-15T03:57:43;100564.13;;;2.22;31.21
76940;BME280;65885;55.848;35.916;2023-04-15T04:00:12;100560.69;;;2.23;31.61
76940;BME280;65885;55.848;35.916;2023-04-15T04:02:41;100566.72;;;2.24;31.08
76940;BME280;65885;55.848;35.916;2023-04-15T04:05:13;100569.38;;;2.29;31.05
76940;BME280;65885;55.848;35.916;2023-04-15T04:07:42;100569.41;;;2.33;30.72
76940;BME280;65885;55.848;35.916;2023-04-15T04:10:11;100572.91;;;2.37;30.77
76940;BME280;65885;55.848;35.916;2023-04-15T04:12:40;100571.31;;;2.49;30.75
76940;BME280;65885;55.848;35.916;2023-04-15T04:15:10;100570.59;;;2.66;30.67
76940;BME280;65885;55.848;35.916;2023-04-15T04:17:40;100571.66;;;2.88;31.01
76940;BME280;65885;55.848;35.916;2023-04-15T04:20:09;100577.84;;;3.11;31.16
76940;BME280;65885;55.848;35.916;2023-04-15T04:22:40;100572.81;;;3.34;30.79
76940;BME280;65885;55.848;35.916;2023-04-15T04:25:11;100579.88;;;3.59;30.24
76940;BME280;65885;55.848;35.916;2023-04-15T04:27:40;100573.06;;;3.83;29.88
76940;BME280;65885;55.848;35.916;2023-04-15T04:30:09;100583.53;;;4.04;29.33
76940;BME280;65885;55.848;35.916;2023-04-15T04:32:38;100580.13;;;4.22;28.83
76940;BME280;65885;55.848;35.916;2023-04-15T04:35:10;100573.25;;;4.41;29.22
76940;BME280;65885;55.848;35.916;2023-04-15T04:37:41;100574.13;;;4.60;29.08
76940;BME280;65885;55.848;35.916;2023-04-15T04:40:10;100570.69;;;4.70;29.49
76940;BME280;65885;55.848;35.916;2023-04-15T04:42:39;100575.88;;;4.79;29.15
76940;BME280;65885;55.848;35.916;2023-04-15T04:45:08;100568.94;;;4.87;29.22
76940;BME280;65885;55.848;35.916;2023-04-15T04:47:37;100568.09;;;4.94;29.08
76940;BME280;65885;55.848;35.916;2023-04-15T04:50:07;100572.41;;;4.98;28.51
76940;BME280;65885;55.848;35.916;2023-04-15T04:52:37;100575.00;;;5.06;28.68
76940;BME280;65885;55.848;35.916;2023-04-15T04:55:08;100574.16;;;5.15;29.18
76940;BME280;65885;55.848;35.916;2023-04-15T04:57:36;100574.13;;;5.24;28.86
76940;BME280;65885;55.848;35.916;2023-04-15T05:00:06;100580.19;;;5.32;27.59
76940;BME280;65885;55.848;35.916;2023-04-15T05:02:35;100583.63;;;5.39;28.37
76940;BME280;65885;55.848;35.916;2023-04-15T05:05:05;100589.69;;;5.48;28.36
76940;BME280;65885;55.848;35.916;2023-04-15T05:07:34;100577.53;;;5.55;28.01
76940;BME280;65885;55.848;35.916;2023-04-15T05:10:04;100577.50;;;5.63;27.71
76940;BME280;65885;55.848;35.916;2023-04-15T05:12:35;100584.44;;;5.64;27.68
76940;BME280;65885;55.848;35.916;2023-04-15T05:15:05;100582.69;;;5.69;27.39
76940;BME280;65885;55.848;35.916;2023-04-15T05:17:34;100584.41;;;5.73;27.40
76940;BME280;65885;55.848;35.916;2023-04-15T05:20:03;100582.66;;;5.73;26.88
76940;BME280;65885;55.848;35.916;2023-04-15T05:22:32;100589.63;;;5.76;26.77
76940;BME280;65885;55.848;35.916;2023-04-15T05:25:00;100592.22;;;5.76;26.34
76940;BME280;65885;55.848;35.916;2023-04-15T05:27:29;100592.19;;;5.80;26.63
76940;BME280;65885;55.848;35.916;2023-04-15T05:29:59;100586.06;;;5.89;26.27
76940;BME280;65885;55.848;35.916;2023-04-15T05:32:27;100586.09;;;6.00;26.00
76940;BME280;65885;55.848;35.916;2023-04-15T05:34:56;100584.28;;;6.09;26.42
76940;BME280;65885;55.848;35.916;2023-04-15T05:37:24;100580.72;;;6.26;26.14
76940;BME280;65885;55.848;35.916;2023-04-15T05:39:54;100587.56;;;6.45;26.25
76940;BME280;65885;55.848;35.916;2023-04-15T05:42:22;100584.88;;;6.59;25.85
76940;BME280;65885;55.848;35.916;2023-04-15T05:44:51;100585.63;;;6.75;25.87
76940;BME280;65885;55.848;35.916;2023-04-15T05:47:21;100590.72;;;6.91;26.32
76940;BME280;65885;55.848;35.916;2023-04-15T05:49:49;100585.41;;;7.02;26.15
76940;BME280;65885;55.848;35.916;2023-04-15T05:52:18;100585.41;;;7.05;25.83
76940;BME280;65885;55.848;35.916;2023-04-15T05:54:48;100592.28;;;7.09;25.81
76940;BME280;65885;55.848;35.916;2023-04-15T05:57:17;100600.13;;;7.12;26.08
76940;BME280;65885;55.848;35.916;2023-04-15T05:59:46;100602.69;;;7.14;26.31
76940;BME280;65885;55.848;35.916;2023-04-15T06:02:15;100595.75;;;7.14;26.64
76940;BME280;65885;55.848;35.916;2023-04-15T06:04:45;100601.81;;;7.18;26.60
76940;BME280;65885;55.848;35.916;2023-04-15T06:07:14;100601.81;;;7.18;25.91
76940;BME280;65885;55.848;35.916;2023-04-15T06:09:42;100610.50;;;7.18;25.85
76940;BME280;65885;55.848;35.916;2023-04-15T06:12:11;100610.50;;;7.15;25.01
76940;BME280;65885;55.848;35.916;2023-04-15T06:14:40;100610.47;;;7.21;26.13
76940;BME280;65885;55.848;35.916;2023-04-15T06:17:09;100611.22;;;7.36;26.42
76940;BME280;65885;55.848;35.916;2023-04-15T06:19:37;100620.56;;;7.55;26.53
76940;BME280;65885;55.848;35.916;2023-04-15T06:22:07;100613.47;;;7.69;25.57
76940;BME280;65885;55.848;35.916;2023-04-15T06:24:36;100615.19;;;7.72;25.73
76940;BME280;65885;55.848;35.916;2023-04-15T06:27:05;100616.06;;;7.69;25.48
76940;BME280;65885;55.848;35.916;2023-04-15T06:29:35;100622.16;;;7.71;25.92
76940;BME280;65885;55.848;35.916;2023-04-15T06:32:04;100622.09;;;7.76;25.76
76940;BME280;65885;55.848;35.916;2023-04-15T06:34:34;100629.84;;;7.84;25.39
76940;BME280;65885;55.848;35.916;2023-04-15T06:37:04;100623.69;;;7.89;25.42
76940;BME280;65885;55.848;35.916;2023-04-15T06:39:35;100624.50;;;7.96;25.30
76940;BME280;65885;55.848;35.916;2023-04-15T06:42:05;100626.09;;;8.06;25.65
76940;BME280;65885;55.848;35.916;2023-04-15T06:44:35;100635.56;;;8.15;25.83
76940;BME280;65885;55.848;35.916;2023-04-15T06:47:04;100632.88;;;8.21;25.14
76940;BME280;65885;55.848;35.916;2023-04-15T06:49:33;100639.75;;;8.29;25.14
76940;BME280;65885;55.848;35.916;2023-04-15T06:52:01;100644.06;;;8.33;24.34
76940;BME280;65885;55.848;35.916;2023-04-15T06:54:30;100644.00;;;8.38;24.55
76940;BME280;65885;55.848;35.916;2023-04-15T06:57:01;100639.56;;;8.45;25.01
76940;BME280;65885;55.848;35.916;2023-04-15T06:59:30;100642.16;;;8.48;23.92
76940;BME280;65885;55.848;35.916;2023-04-15T07:02:00;100649.13;;;8.49;24.28
76940;BME280;65885;55.848;35.916;2023-04-15T07:04:29;100643.81;;;8.53;24.37
76940;BME280;65885;55.848;35.916;2023-04-15T07:06:58;100642.00;;;8.58;24.41
76940;BME280;65885;55.848;35.916;2023-04-15T07:09:28;100646.25;;;8.66;23.79
76940;BME280;65885;55.848;35.916;2023-04-15T07:11:57;100648.81;;;8.72;23.99
76940;BME280;65885;55.848;35.916;2023-04-15T07:14:27;100650.34;;;8.85;24.88
76940;BME280;65885;55.848;35.916;2023-04-15T07:16:55;100645.91;;;8.90;23.86
76940;BME280;65885;55.848;35.916;2023-04-15T07:19:25;100641.53;;;8.92;23.56
76940;BME280;65885;55.848;35.916;2023-04-15T07:21:53;100646.63;;;9.01;24.03
76940;BME280;65885;55.848;35.916;2023-04-15T07:24:22;100651.69;;;9.10;24.08
76940;BME280;65885;55.848;35.916;2023-04-15T07:26:53;100639.41;;;9.15;23.91
76940;BME280;65885;55.848;35.916;2023-04-15T07:29:23;100644.53;;;9.23;23.58
76940;BME280;65885;55.848;35.916;2023-04-15T07:31:54;100640.78;;;9.38;23.61
76940;BME280;65885;55.848;35.916;2023-04-15T07:34:23;100637.66;;;9.65;24.11
76940;BME280;65885;55.848;35.916;2023-04-15T07:36:52;100629.19;;;9.97;23.85
76940;BME280;65885;55.848;35.916;2023-04-15T07:39:21;100638.97;;;10.33;23.46
76940;BME280;65885;55.848;35.916;2023-04-15T07:41:49;100643.50;;;10.66;23.45
76940;BME280;65885;55.848;35.916;2023-04-15T07:44:18;100626.09;;;10.99;22.79
76940;BME280;65885;55.848;35.916;2023-04-15T07:46:46;100626.13;;;11.33;22.37
76940;BME280;65885;55.848;35.916;2023-04-15T07:49:21;100620.09;;;11.62;22.11
76940;BME280;65885;55.848;35.916;2023-04-15T07:51:49;100620.31;;;11.89;22.13
76940;BME280;65885;55.848;35.916;2023-04-15T07:54:20;100629.38;;;12.08;21.67
76940;BME280;65885;55.848;35.916;2023-04-15T07:56:49;100618.41;;;12.23;21.84
76940;BME280;65885;55.848;35.916;2023-04-15T07:59:18;100620.47;;;12.43;22.35
76940;BME280;65885;55.848;35.916;2023-04-15T08:01:46;100617.19;;;12.65;22.36
76940;BME280;65885;55.848;35.916;2023-04-15T08:04:16;100621.88;;;12.83;22.00
76940;BME280;65885;55.848;35.916;2023-04-15T08:06:46;100627.66;;;12.94;21.05
76940;BME280;65885;55.848;35.916;2023-04-15T08:09:16;100608.78;;;13.08;21.75
76940;BME280;65885;55.848;35.916;2023-04-15T08:11:47;100613.59;;;13.22;21.36
76940;BME280;65885;55.848;35.916;2023-04-15T08:14:15;100619.25;;;13.38;21.62
76940;BME280;65885;55.848;35.916;2023-04-15T08:16:44;100611.69;;;13.52;21.12
76940;BME280;65885;55.848;35.916;2023-04-15T08:19:13;100606.06;;;13.63;19.84
76940;BME280;65885;55.848;35.916;2023-04-15T08:21:42;100609.34;;;13.69;19.99
76940;BME280;65885;55.848;35.916;2023-04-15T08:24:15;100603.09;;;13.72;19.22
76940;BME280;65885;55.848;35.916;2023-04-15T08:26:44;100605.59;;;13.76;19.53
76940;BME280;65885;55.848;35.916;2023-04-15T08:29:14;100606.97;;;13.86;20.21
76940;BME280;65885;55.848;35.916;2023-04-15T08:31:44;100601.28;;;13.97;19.60
76940;BME280;65885;55.848;35.916;2023-04-15T08:34:16;100605.63;;;14.00;19.09
76940;BME280;65885;55.848;35.916;2023-04-15T08:36:46;100603.56;;;14.08;19.43
76940;BME280;65885;55.848;35.916;2023-04-15T08:39:17;100602.28;;;14.18;19.69
76940;BME280;65885;55.848;35.916;2023-04-15T08:41:47;100599.28;;;14.27;19.62
76940;BME280;65885;55.848;35.916;2023-04-15T08:44:21;100598.13;;;14.34;19.27
76940;BME280;65885;55.848;35.916;2023-04-15T08:46:52;100606.91;;;14.35;19.04
76940;BME280;65885;55.848;35.916;2023-04-15T08:49:25;100598.97;;;14.36;18.89
76940;BME280;65885;55.848;35.916;2023-04-15T08:51:57;100604.81;;;14.44;19.03
76940;BME280;65885;55.848;35.916;2023-04-15T08:54:27;100586.97;;;14.51;18.67
76940;BME280;65885;55.848;35.916;2023-04-15T08:56:57;100599.91;;;14.57;18.44
76940;BME280;65885;55.848;35.916;2023-04-15T08:59:26;100601.41;;;14.64;18.38
76940;BME280;65885;55.848;35.916;2023-04-15T09:01:56;100590.53;;;14.72;18.57
76940;BME280;65885;55.848;35.916;2023-04-15T09:04:25;100584.22;;;14.76;17.98
76940;BME280;65885;55.848;35.916;2023-04-15T09:06:54;100593.94;;;14.76;18.36
76940;BME280;65885;55.848;35.916;2023-04-15T09:09:23;100593.78;;;14.79;19.00
76940;BME280;65885;55.848;35.916;2023-04-15T09:11:55;100582.91;;;14.86;19.23
76940;BME280;65885;55.848;35.916;2023-04-15T09:14:25;100588.75;;;14.94;18.61
76940;BME280;65885;55.848;35.916;2023-04-15T09:16:58;100578.72;;;15.03;18.68
76940;BME280;65885;55.848;35.916;2023-04-15T09:19:28;100573.56;;;14.99;18.16
76940;BME280;65885;55.848;35.916;2023-04-15T09:21:58;100580.75;;;14.96;18.68
76940;BME280;65885;55.848;35.916;2023-04-15T09:24:35;100577.94;;;15.01;18.81
76940;BME280;65885;55.848;35.916;2023-04-15T09:27:06;100575.09;;;15.05;18.68
76940;BME280;65885;55.848;35.916;2023-04-15T09:29:35;100569.28;;;15.17;18.46
76940;BME280;65885;55.848;35.916;2023-04-15T09:32:12;100568.84;;;15.28;18.41
76940;BME280;65885;55.848;35.916;2023-04-15T09:34:41;100575.53;;;15.37;18.95
76940;BME280;65885;55.848;35.916;2023-04-15T09:37:10;100575.78;;;15.51;18.93
76940;BME280;65885;55.848;35.916;2023-04-15T09:39:47;100573.44;;;15.65;18.54
76940;BME280;65885;55.848;35.916;2023-04-15T09:42:19;100567.91;;;15.70;18.16
76940;BME280;65885;55.848;35.916;2023-04-15T09:44:52;100573.69;;;15.79;18.35
76940;BME280;65885;55.848;35.916;2023-04-15T09:47:28;100564.50;;;15.87;17.83
76940;BME280;65885;55.848;35.916;2023-04-15T09:49:57;100578.34;;;15.93;17.91
76940;BME280;65885;55.848;35.916;2023-04-15T09:52:26;100570.28;;;15.96;17.65
76940;BME280;65885;55.848;35.916;2023-04-15T09:54:57;100563.81;;;16.02;17.31
76940;BME280;65885;55.848;35.916;2023-04-15T09:57:33;100569.00;;;16.05;17.10
76940;BME280;65885;55.848;35.916;2023-04-15T10:00:02;100574.00;;;16.11;17.99
76940;BME280;65885;55.848;35.916;2023-04-15T10:02:33;100564.28;;;16.12;17.08
76940;BME280;65885;55.848;35.916;2023-04-15T10:05:02;100573.16;;;16.11;17.17
76940;BME280;65885;55.848;35.916;2023-04-15T10:07:31;100584.94;;;16.03;17.24
76940;BME280;65885;55.848;35.916;2023-04-15T10:10:02;100586.78;;;16.01;17.22
76940;BME280;65885;55.848;35.916;2023-04-15T10:12:33;100580.59;;;16.02;17.39
76940;BME280;65885;55.848;35.916;2023-04-15T10:15:06;100593.06;;;15.99;17.24
76940;BME280;65885;55.848;35.916;2023-04-15T10:17:40;100580.84;;;15.96;17.08
76940;BME280;65885;55.848;35.916;2023-04-15T10:20:11;100589.56;;;15.98;17.04
76940;BME280;65885;55.848;35.916;2023-04-15T10:22:42;100590.25;;;16.03;16.73
76940;BME280;65885;55.848;35.916;2023-04-15T10:25:14;100583.00;;;16.07;16.56
76940;BME280;65885;55.848;35.916;2023-04-15T10:27:44;100578.66;;;16.25;16.41
76940;BME280;65885;55.848;35.916;2023-04-15T10:30:15;100582.88;;;16.48;16.97
76940;BME280;65885;55.848;35.916;2023-04-15T10:32:45;100582.28;;;16.79;16.92
76940;BME280;65885;55.848;35.916;2023-04-15T10:35:15;100577.78;;;16.98;16.83
76940;BME280;65885;55.848;35.916;2023-04-15T10:37:44;100576.03;;;17.16;16.69
76940;BME280;65885;55.848;35.916;2023-04-15T10:40:27;100581.72;;;17.26;16.59
76940;BME280;65885;55.848;35.916;2023-04-15T10:42:59;100569.00;;;17.32;17.01
76940;BME280;65885;55.848;35.916;2023-04-15T10:45:32;100572.97;;;17.41;16.88
76940;BME280;65885;55.848;35.916;2023-04-15T10:48:02;100568.13;;;17.49;16.67
76940;BME280;65885;55.848;35.916;2023-04-15T10:50:31;100566.03;;;17.56;16.51
76940;BME280;65885;55.848;35.916;2023-04-15T10:53:02;100562.34;;;17.58;16.67
76940;BME280;65885;55.848;35.916;2023-04-15T10:55:33;100569.03;;;17.65;16.50
76940;BME280;65885;55.848;35.916;2023-04-15T10:58:03;100570.56;;;17.71;16.40
76940;BME280;65885;55.848;35.916;2023-04-15T11:00:32;100563.81;;;17.81;16.78
76940;BME280;65885;55.848;35.916;2023-04-15T11:03:05;100570.19;;;17.94;16.63
76940;BME280;65885;55.848;35.916;2023-04-15T11:05:48;100565.66;;;18.12;16.60
76940;BME280;65885;55.848;35.916;2023-04-15T11:08:17;100570.31;;;18.24;15.97
76940;BME280;65885;55.848;35.916;2023-04-15T11:10:54;100563.41;;;18.38;16.20
76940;BME280;65885;55.848;35.916;2023-04-15T11:13:26;100560.13;;;18.48;15.69
76940;BME280;65885;55.848;35.916;2023-04-15T11:15:57;100557.97;;;18.55;15.54
76940;BME280;65885;55.848;35.916;2023-04-15T11:18:29;100560.22;;;18.63;15.78
76940;BME280;65885;55.848;35.916;2023-04-15T11:21:02;100558.75;;;18.73;15.73
76940;BME280;65885;55.848;35.916;2023-04-15T11:23:38;100559.59;;;18.89;15.83
76940;BME280;65885;55.848;35.916;2023-04-15T11:26:10;100555.13;;;19.05;15.69
76940;BME280;65885;55.848;35.916;2023-04-15T11:28:41;100552.09;;;19.26;15.80
76940;BME280;65885;55.848;35.916;2023-04-15T11:31:12;100555.75;;;19.39;15.52
76940;BME280;65885;55.848;35.916;2023-04-15T11:33:45;100554.72;;;19.56;15.66
76940;BME280;65885;55.848;35.916;2023-04-15T11:36:14;100553.56;;;19.76;15.66
76940;BME280;65885;55.848;35.916;2023-04-15T11:38:45;100556.97;;;19.92;15.38
76940;BME280;65885;55.848;35.916;2023-04-15T11:41:13;100551.75;;;20.05;14.65
76940;BME280;65885;55.848;35.916;2023-04-15T11:43:44;100548.03;;;20.07;14.96
76940;BME280;65885;55.848;35.916;2023-04-15T11:46:13;100546.78;;;20.13;14.71
76940;BME280;65885;55.848;35.916;2023-04-15T11:48:42;100540.13;;;20.20;15.00
76940;BME280;65885;55.848;35.916;2023-04-15T11:51:12;100545.25;;;20.23;14.55
76940;BME280;65885;55.848;35.916;2023-04-15T11:53:42;100552.59;;;20.19;14.08
76940;BME280;65885;55.848;35.916;2023-04-15T11:56:17;100544.59;;;20.19;14.25
76940;BME280;65885;55.848;35.916;2023-04-15T11:58:53;100545.81;;;20.28;14.67
76940;BME280;65885;55.848;35.916;2023-04-15T12:01:30;100539.13;;;20.35;14.18
76940;BME280;65885;55.848;35.916;2023-04-15T12:03:58;100540.63;;;20.39;13.97
76940;BME280;65885;55.848;35.916;2023-04-15T12:06:30;100533.97;;;20.46;14.88
76940;BME280;65885;55.848;35.916;2023-04-15T12:09:03;100534.16;;;20.58;14.97
76940;BME280;65885;55.848;35.916;2023-04-15T12:11:39;100527.16;;;20.69;14.29
76940;BME280;65885;55.848;35.916;2023-04-15T12:14:10;100535.41;;;20.79;14.41
76940;BME280;65885;55.848;35.916;2023-04-15T12:16:41;100536.63;;;20.88;14.09
76940;BME280;65885;55.848;35.916;2023-04-15T12:19:10;100539.91;;;20.91;14.23
76940;BME280;65885;55.848;35.916;2023-04-15T12:21:39;100534.50;;;21.05;14.51
76940;BME280;65885;55.848;35.916;2023-04-15T12:24:07;100539.34;;;21.13;13.94
76940;BME280;65885;55.848;35.916;2023-04-15T12:26:37;100535.19;;;21.22;13.94
76940;BME280;65885;55.848;35.916;2023-04-15T12:29:12;100543.53;;;21.30;13.75
76940;BME280;65885;55.848;35.916;2023-04-15T12:31:51;100536.69;;;21.26;13.39
76940;BME280;65885;55.848;35.916;2023-04-15T12:34:26;100546.25;;;21.16;13.30
76940;BME280;65885;55.848;35.916;2023-04-15T12:36:55;100553.34;;;21.17;13.50
76940;BME280;65885;55.848;35.916;2023-04-15T12:39:24;100542.88;;;21.26;13.51
76940;BME280;65885;55.848;35.916;2023-04-15T12:41:53;100538.97;;;21.32;12.58
76940;BME280;65885;55.848;35.916;2023-04-15T12:44:23;100541.81;;;21.16;12.80
76940;BME280;65885;55.848;35.916;2023-04-15T12:46:51;100542.06;;;20.99;13.17
76940;BME280;65885;55.848;35.916;2023-04-15T12:49:19;100542.25;;;20.83;13.00
76940;BME280;65885;55.848;35.916;2023-04-15T12:51:48;100538.75;;;20.56;11.76
76940;BME280;65885;55.848;35.916;2023-04-15T12:54:15;100534.78;;;20.34;13.07
76940;BME280;65885;55.848;35.916;2023-04-15T12:56:43;100537.06;;;20.26;13.12
76940;BME280;65885;55.848;35.916;2023-04-15T12:59:11;100532.03;;;20.21;13.44
76940;BME280;65885;55.848;35.916;2023-04-15T13:01:40;100535.38;;;20.11;13.33
76940;BME280;65885;55.848;35.916;2023-04-15T13:04:09;100535.75;;;20.05;13.29
76940;BME280;65885;55.848;35.916;2023-04-15T13:06:37;100537.28;;;19.94;13.04